Time;durP1;ratioP1;P1;durP2;ratioP2;P2;SDS_P1;SDS_P2;PMS_P1;PMS_P2;Temp;Humidity;BMP_temperature;BMP_pressure;BME280_temperature;BME280_humidity;BME280_pressure;Samples;Min_cycle;Max_cycle;Signal;HPM_P1;HPM_P2
2022/07/08 00:02:11;;;;;;;10.17;3.13;;;16.30;37.60;;;;;;5050903;28;20388;-70
2022/07/08 00:04:37;;;;;;;13.17;2.87;;;16.30;37.70;;;;;;5032687;28;20928;-70
2022/07/08 00:07:03;;;;;;;14.57;2.87;;;16.30;37.30;;;;;;5051166;28;20437;-71
2022/07/08 00:09:28;;;;;;;7.45;3.17;;;16.30;37.80;;;;;;5050453;28;20405;-71
2022/07/08 00:11:55;;;;;;;13.38;2.65;;;16.30;37.60;;;;;;5050709;28;20858;-70
2022/07/08 00:14:20;;;;;;;10.35;2.70;;;16.30;38.10;;;;;;5051215;28;20858;-72
2022/07/08 00:16:46;;;;;;;9.68;3.03;;;16.30;38.70;;;;;;5051722;28;20390;-72
2022/07/08 00:19:14;;;;;;;8.37;2.20;;;16.30;39.00;;;;;;5051051;28;20389;-71
2022/07/08 00:21:40;;;;;;;8.73;2.40;;;16.20;39.40;;;;;;5050637;28;20405;-71
2022/07/08 00:24:06;;;;;;;8.68;2.50;;;16.20;40.20;;;;;;5050839;28;20416;-71
2022/07/08 00:26:32;;;;;;;8.48;2.47;;;16.20;40.10;;;;;;5032880;28;20440;-70
2022/07/08 00:28:57;;;;;;;9.53;3.00;;;16.20;40.20;;;;;;5050627;28;21015;-70
2022/07/08 00:31:24;;;;;;;15.60;3.20;;;16.20;40.70;;;;;;5050046;28;20385;-70
2022/07/08 00:33:50;;;;;;;11.10;2.33;;;16.20;40.90;;;;;;5050626;28;20396;-71
2022/07/08 00:36:15;;;;;;;9.17;2.80;;;16.20;40.50;;;;;;5050692;28;20855;-71
2022/07/08 00:38:41;;;;;;;10.20;2.50;;;16.10;41.00;;;;;;5050859;28;20377;-70
2022/07/08 00:41:06;;;;;;;10.27;2.80;;;16.20;40.70;;;;;;5050859;28;20814;-72
2022/07/08 00:43:40;;;;;;;14.30;3.20;;;16.10;41.20;;;;;;5050922;28;20473;-73
2022/07/08 00:46:07;;;;;;;15.65;3.50;;;16.20;41.40;;;;;;5050795;28;20447;-72
2022/07/08 00:48:33;;;;;;;11.82;3.22;;;16.10;41.60;;;;;;5032714;28;20397;-72
2022/07/08 00:51:02;;;;;;;12.77;2.80;;;16.20;41.50;;;;;;5050690;28;20432;-72
2022/07/08 00:53:29;;;;;;;8.63;2.37;;;16.20;41.50;;;;;;5050789;28;20434;-70
2022/07/08 00:55:55;;;;;;;7.75;2.60;;;16.10;41.40;;;;;;5050610;28;20580;-70
2022/07/08 00:58:21;;;;;;;10.05;2.78;;;16.10;42.00;;;;;;5050609;28;20401;-71
2022/07/08 01:00:47;;;;;;;12.05;2.80;;;16.10;41.00;;;;;;5050804;28;20389;-72
2022/07/08 01:03:13;;;;;;;11.10;3.00;;;16.10;41.90;;;;;;5049941;28;20412;-70
2022/07/08 01:05:38;;;;;;;8.30;2.65;;;16.10;41.80;;;;;;5050431;28;20385;-72
2022/07/08 01:08:04;;;;;;;10.57;2.67;;;16.00;41.00;;;;;;5055900;28;20394;-71
2022/07/08 01:10:31;;;;;;;13.18;3.00;;;16.00;41.60;;;;;;5059782;28;20413;-70
2022/07/08 01:12:57;;;;;;;12.50;3.22;;;16.00;41.90;;;;;;5036614;28;20902;-72
2022/07/08 01:15:23;;;;;;;12.77;2.80;;;16.00;42.30;;;;;;5052382;28;20639;-71
2022/07/08 01:17:48;;;;;;;10.95;2.20;;;16.00;42.00;;;;;;5050542;28;20417;-70
2022/07/08 01:20:15;;;;;;;13.03;3.00;;;16.00;41.20;;;;;;5053331;28;20416;-71
2022/07/08 01:22:40;;;;;;;8.15;2.83;;;16.00;41.10;;;;;;5053769;28;20382;-71
2022/07/08 01:25:07;;;;;;;15.88;2.90;;;16.00;41.50;;;;;;5054199;28;20434;-72
2022/07/08 01:27:33;;;;;;;10.98;2.70;;;16.00;40.00;;;;;;5054103;28;20799;-70
2022/07/08 01:29:59;;;;;;;14.07;3.20;;;16.00;40.20;;;;;;5054238;28;20505;-71
2022/07/08 01:32:32;;;;;;;17.60;3.35;;;16.00;39.90;;;;;;5053732;28;20817;-70
2022/07/08 01:34:58;;;;;;;14.88;2.90;;;16.00;40.00;;;;;;5054163;28;20468;-70
2022/07/08 01:37:24;;;;;;;15.02;3.78;;;16.00;39.10;;;;;;5054575;28;20472;-71
2022/07/08 01:39:49;;;;;;;12.48;2.90;;;16.10;39.00;;;;;;5054432;28;20836;-71
2022/07/08 01:42:15;;;;;;;12.60;2.65;;;16.00;39.30;;;;;;5054149;28;20381;-72
2022/07/08 01:44:40;;;;;;;8.87;2.90;;;16.00;40.10;;;;;;5053719;28;20388;-72
2022/07/08 01:47:06;;;;;;;10.67;2.77;;;16.00;40.60;;;;;;5054407;28;20400;-70
2022/07/08 01:49:32;;;;;;;14.30;2.97;;;16.00;40.70;;;;;;5053251;28;20424;-70
2022/07/08 01:51:58;;;;;;;10.60;3.22;;;15.90;41.30;;;;;;5053234;28;20378;-70
2022/07/08 01:54:24;;;;;;;9.93;2.67;;;16.00;41.40;;;;;;5053600;28;20468;-70
2022/07/08 01:56:49;;;;;;;10.67;2.60;;;15.90;41.70;;;;;;5053582;28;20386;-72
2022/07/08 01:59:15;;;;;;;9.10;2.90;;;15.90;40.90;;;;;;5035676;28;20940;-71
2022/07/08 02:01:41;;;;;;;11.82;2.60;;;15.90;40.10;;;;;;5052663;28;20392;-72
2022/07/08 02:04:06;;;;;;;14.45;2.95;;;15.90;39.90;;;;;;5067479;22;20449;-71
2022/07/08 02:06:32;;;;;;;16.50;3.03;;;15.90;40.50;;;;;;5052993;28;20405;-71
2022/07/08 02:08:57;;;;;;;9.97;3.00;;;15.90;41.20;;;;;;5052844;28;20401;-73
2022/07/08 02:14:07;;;;;;;12.40;3.07;;;16.00;38.90;;;;;;5052661;28;20389;-72
2022/07/08 02:16:32;;;;;;;9.73;2.70;;;15.90;39.50;;;;;;5052523;28;20385;-72
2022/07/08 02:18:58;;;;;;;13.93;3.20;;;16.00;39.90;;;;;;5052573;28;20380;-73
2022/07/08 02:21:24;;;;;;;12.25;2.92;;;16.00;40.00;;;;;;5052603;28;20417;-73
2022/07/08 02:23:49;;;;;;;13.85;3.30;;;16.00;40.60;;;;;;5052624;28;20389;-73
2022/07/08 02:26:15;;;;;;;11.40;3.05;;;15.90;40.70;;;;;;5052376;28;20502;-71
2022/07/08 02:28:40;;;;;;;17.87;3.10;;;15.90;41.30;;;;;;5052247;28;20444;-72
2022/07/08 02:31:06;;;;;;;15.37;3.50;;;16.00;41.20;;;;;;5051711;28;20381;-72
2022/07/08 02:33:31;;;;;;;27.63;3.33;;;15.90;40.90;;;;;;5034428;28;20417;-71
2022/07/08 02:35:57;;;;;;;11.20;3.10;;;16.00;41.20;;;;;;5052385;28;20874;-72
2022/07/08 02:38:24;;;;;;;13.40;3.00;;;15.90;40.40;;;;;;5052155;28;20385;-72
2022/07/08 02:40:50;;;;;;;17.33;3.60;;;15.90;41.30;;;;;;5052152;28;20389;-73
2022/07/08 02:43:16;;;;;;;14.90;3.20;;;16.00;40.70;;;;;;5052026;28;20523;-72
2022/07/08 02:45:41;;;;;;;10.40;3.00;;;16.00;40.70;;;;;;5052160;28;20858;-71
2022/07/08 02:48:07;;;;;;;9.55;2.80;;;16.00;41.00;;;;;;5052219;28;20389;-72
2022/07/08 02:50:32;;;;;;;11.25;2.83;;;15.90;41.20;;;;;;5051970;28;20485;-73
2022/07/08 02:52:58;;;;;;;12.23;3.20;;;15.90;41.10;;;;;;5051950;28;20393;-72
2022/07/08 02:55:24;;;;;;;8.80;2.77;;;15.90;41.60;;;;;;5051890;28;20409;-73
2022/07/08 02:57:49;;;;;;;8.83;2.50;;;15.80;42.10;;;;;;5052192;28;20378;-73
2022/07/08 03:00:15;;;;;;;14.00;2.90;;;15.80;42.80;;;;;;5051823;28;20389;-73
2022/07/08 03:02:40;;;;;;;14.52;2.80;;;15.80;42.90;;;;;;5051496;28;20754;-72
2022/07/08 03:05:06;;;;;;;10.57;3.03;;;15.90;43.30;;;;;;5052955;28;20404;-72
2022/07/08 03:07:32;;;;;;;15.90;3.67;;;15.80;43.00;;;;;;5052601;28;20463;-72
2022/07/08 03:09:57;;;;;;;12.10;3.40;;;15.90;43.20;;;;;;5051654;28;20440;-72
2022/07/08 03:12:23;;;;;;;10.73;2.53;;;15.90;43.70;;;;;;5051393;28;20389;-73
2022/07/08 03:14:48;;;;;;;12.17;2.50;;;15.90;43.40;;;;;;5051334;28;20393;-72
2022/07/08 03:17:14;;;;;;;17.52;3.40;;;15.80;43.40;;;;;;5051353;28;20391;-73
2022/07/08 03:19:39;;;;;;;13.45;3.40;;;15.80;43.90;;;;;;5051286;28;20886;-72
2022/07/08 03:22:05;;;;;;;13.30;3.50;;;15.70;45.10;;;;;;5033310;28;20389;-73
2022/07/08 03:24:31;;;;;;;17.25;3.72;;;15.60;45.50;;;;;;5051543;28;20385;-73
2022/07/08 03:26:57;;;;;;;7.68;2.90;;;15.60;46.40;;;;;;5051501;28;20393;-73
2022/07/08 03:29:22;;;;;;;12.80;3.35;;;15.50;46.70;;;;;;5033464;28;20402;-72
2022/07/08 03:31:48;;;;;;;7.67;2.90;;;15.50;47.20;;;;;;5051113;28;20468;-72
2022/07/08 03:34:14;;;;;;;11.60;2.70;;;15.50;47.70;;;;;;5051251;28;20486;-73
2022/07/08 03:36:39;;;;;;;9.38;3.10;;;15.50;48.00;;;;;;5051200;28;20931;-73
2022/07/08 03:39:05;;;;;;;11.85;2.90;;;15.50;48.10;;;;;;5051396;28;20428;-73
2022/07/08 03:41:31;;;;;;;13.87;3.33;;;15.50;48.40;;;;;;5050986;28;20756;-73
2022/07/08 03:43:56;;;;;;;13.63;3.20;;;15.50;48.20;;;;;;5050567;28;20390;-73
2022/07/08 03:46:22;;;;;;;11.47;3.50;;;15.50;48.40;;;;;;5033445;28;20395;-72
2022/07/08 03:48:48;;;;;;;6.10;2.90;;;15.40;48.90;;;;;;5051084;28;20461;-72
2022/07/08 03:51:15;;;;;;;11.55;3.00;;;15.40;49.20;;;;;;5050955;28;20763;-73
2022/07/08 03:53:41;;;;;;;13.30;3.70;;;15.40;49.50;;;;;;5050900;28;20382;-73
2022/07/08 03:56:07;;;;;;;8.73;3.00;;;15.40;49.80;;;;;;5051035;28;20451;-72
2022/07/08 03:58:34;;;;;;;14.13;3.45;;;15.30;49.50;;;;;;5050769;28;20438;-73
2022/07/08 04:01:00;;;;;;;15.20;3.35;;;15.40;49.80;;;;;;5050703;28;20405;-73
2022/07/08 04:03:26;;;;;;;11.93;3.42;;;15.30;49.80;;;;;;5050853;28;20421;-73
2022/07/08 04:05:51;;;;;;;13.98;3.38;;;15.30;50.00;;;;;;5034443;28;20404;-72
2022/07/08 04:08:17;;;;;;;16.03;4.20;;;15.30;50.50;;;;;;5051122;28;20738;-72
2022/07/08 04:10:42;;;;;;;11.43;3.43;;;15.40;49.90;;;;;;5051283;28;20943;-72
2022/07/08 04:13:08;;;;;;;10.07;3.50;;;15.40;49.90;;;;;;5051405;28;20385;-72
2022/07/08 04:15:33;;;;;;;14.18;3.50;;;15.40;49.80;;;;;;5051235;28;20431;-72
2022/07/08 04:17:59;;;;;;;11.15;3.00;;;15.40;49.90;;;;;;5051184;28;20393;-75
2022/07/08 04:20:25;;;;;;;12.95;3.10;;;15.40;50.00;;;;;;5051277;28;20727;-74
2022/07/08 04:22:50;;;;;;;13.07;3.20;;;15.40;49.50;;;;;;5052135;28;20393;-74
2022/07/08 04:25:16;;;;;;;9.57;3.57;;;15.40;49.90;;;;;;5032947;28;20409;-73
2022/07/08 04:27:41;;;;;;;13.53;3.30;;;15.40;50.20;;;;;;5032727;28;20393;-73
2022/07/08 04:30:07;;;;;;;11.23;3.27;;;15.30;49.90;;;;;;5050832;28;20469;-73
2022/07/08 04:32:33;;;;;;;12.80;3.80;;;15.30;50.30;;;;;;5050140;28;20541;-73
2022/07/08 04:34:59;;;;;;;14.80;3.50;;;15.30;50.70;;;;;;5050711;28;20872;-73
2022/07/08 04:37:26;;;;;;;14.47;3.60;;;15.30;50.70;;;;;;5050447;28;20758;-73
2022/07/08 04:39:52;;;;;;;20.63;4.30;;;15.30;51.20;;;;;;5050308;28;20397;-73
2022/07/08 04:42:18;;;;;;;12.90;4.20;;;15.30;52.00;;;;;;5050193;28;20790;-73
2022/07/08 04:44:43;;;;;;;16.38;3.60;;;15.30;50.90;;;;;;5050138;28;20381;-72
2022/07/08 04:47:09;;;;;;;9.57;3.72;;;15.30;50.90;;;;;;5050105;28;20393;-73
2022/07/08 04:49:34;;;;;;;12.80;4.00;;;15.30;50.90;;;;;;5050413;28;20401;-73
2022/07/08 04:52:00;;;;;;;10.40;3.53;;;15.40;50.70;;;;;;5050486;28;20850;-72
2022/07/08 04:54:25;;;;;;;15.50;3.53;;;15.40;51.10;;;;;;5051605;28;20915;-72
2022/07/08 04:56:51;;;;;;;12.63;3.60;;;15.30;50.50;;;;;;5054147;28;20413;-74
2022/07/08 04:59:16;;;;;;;12.68;4.22;;;15.40;50.80;;;;;;5054111;28;20423;-72
2022/07/08 05:01:42;;;;;;;14.23;4.30;;;15.30;51.20;;;;;;5053647;28;20415;-74
2022/07/08 05:04:07;;;;;;;15.87;4.30;;;15.30;51.60;;;;;;5053970;28;20897;-73
2022/07/08 05:06:33;;;;;;;10.73;4.13;;;15.30;51.90;;;;;;5053654;28;20837;-74
2022/07/08 05:08:58;;;;;;;12.53;4.07;;;15.30;50.90;;;;;;5053900;28;20481;-73
2022/07/08 05:11:24;;;;;;;15.00;4.10;;;15.20;52.10;;;;;;5053759;28;20412;-73
2022/07/08 05:13:50;;;;;;;14.05;4.65;;;15.30;50.70;;;;;;5053958;28;20430;-73
2022/07/08 05:16:15;;;;;;;20.70;5.40;;;15.40;50.50;;;;;;5053797;28;20386;-73
2022/07/08 05:18:41;;;;;;;12.70;4.10;;;15.50;50.60;;;;;;5053474;28;20852;-73
2022/07/08 05:21:07;;;;;;;14.23;3.97;;;15.70;49.30;;;;;;5053491;28;20385;-73
2022/07/08 05:23:32;;;;;;;12.60;4.10;;;15.80;48.00;;;;;;5053564;28;20394;-72
2022/07/08 05:25:58;;;;;;;14.77;4.30;;;15.80;47.50;;;;;;5053544;28;20394;-73
2022/07/08 05:28:23;;;;;;;12.90;4.30;;;15.80;46.70;;;;;;5053485;28;20874;-73
2022/07/08 05:30:49;;;;;;;19.27;4.97;;;15.80;46.80;;;;;;5035463;28;20401;-73
2022/07/08 05:33:15;;;;;;;11.50;4.50;;;15.70;47.50;;;;;;5035294;28;20381;-73
2022/07/08 05:35:40;;;;;;;14.57;4.40;;;15.80;47.50;;;;;;5053093;28;20548;-72
2022/07/08 05:38:06;;;;;;;15.30;4.40;;;15.80;45.70;;;;;;5053133;28;20436;-73
2022/07/08 05:40:32;;;;;;;12.87;4.17;;;15.80;47.20;;;;;;5053238;28;20580;-72
2022/07/08 05:42:57;;;;;;;13.85;3.60;;;15.80;45.70;;;;;;5053049;28;20388;-72
2022/07/08 05:45:23;;;;;;;9.57;4.00;;;15.70;45.40;;;;;;5053415;28;20393;-72
2022/07/08 05:47:49;;;;;;;13.73;4.00;;;15.80;46.60;;;;;;5053157;28;20386;-72
2022/07/08 05:50:14;;;;;;;11.60;4.03;;;15.80;45.10;;;;;;5053332;28;20420;-73
2022/07/08 05:52:40;;;;;;;13.15;3.78;;;15.90;43.90;;;;;;5052724;28;20435;-73
2022/07/08 05:55:06;;;;;;;13.30;3.40;;;15.90;42.90;;;;;;5052988;28;20377;-74
2022/07/08 05:57:31;;;;;;;8.77;3.03;;;16.00;42.90;;;;;;5052964;28;20870;-73
2022/07/08 05:59:57;;;;;;;12.20;2.80;;;16.00;39.40;;;;;;5052947;28;20396;-73
2022/07/08 06:02:22;;;;;;;7.97;2.90;;;16.00;36.70;;;;;;5052645;28;20893;-72
2022/07/08 06:04:48;;;;;;;10.70;2.10;;;16.10;36.40;;;;;;5052596;28;20837;-73
2022/07/08 06:07:13;;;;;;;7.97;2.40;;;16.10;35.10;;;;;;5051884;28;20830;-73
2022/07/08 06:09:39;;;;;;;7.97;1.80;;;16.30;34.50;;;;;;5052394;28;20905;-73
2022/07/08 06:12:05;;;;;;;8.40;1.90;;;16.20;33.00;;;;;;5034457;28;20393;-73
2022/07/08 06:14:31;;;;;;;6.03;2.00;;;16.20;33.90;;;;;;5052181;28;20869;-72
2022/07/08 06:16:56;;;;;;;9.20;2.50;;;16.30;33.10;;;;;;5053091;28;20480;-72
2022/07/08 06:19:25;;;;;;;4.50;1.80;;;16.50;32.90;;;;;;5053792;28;20469;-74
2022/07/08 06:21:51;;;;;;;8.10;2.00;;;16.50;30.50;;;;;;5052915;28;20484;-73
2022/07/08 06:24:17;;;;;;;9.75;2.30;;;16.60;30.30;;;;;;5052182;28;20481;-75
2022/07/08 06:26:43;;;;;;;7.00;2.17;;;16.70;30.80;;;;;;5051897;28;20386;-72
2022/07/08 06:29:10;;;;;;;3.00;1.70;;;16.70;30.00;;;;;;5051040;28;20832;-73
2022/07/08 06:31:38;;;;;;;6.80;1.80;;;16.60;30.50;;;;;;5050827;28;20423;-72
2022/07/08 06:34:04;;;;;;;8.05;2.60;;;16.60;29.90;;;;;;5052031;28;20397;-71
2022/07/08 06:36:30;;;;;;;11.55;2.80;;;16.70;30.20;;;;;;5047477;28;20406;-71
2022/07/08 06:38:55;;;;;;;9.60;2.47;;;17.00;29.60;;;;;;5030632;28;20387;-72
2022/07/08 06:41:21;;;;;;;10.90;2.70;;;17.10;29.40;;;;;;5049874;28;20397;-72
2022/07/08 06:43:47;;;;;;;8.68;2.45;;;17.30;28.00;;;;;;5049890;28;20475;-71
2022/07/08 06:46:13;;;;;;;8.52;2.53;;;17.50;28.70;;;;;;5049811;28;20409;-71
2022/07/08 06:48:39;;;;;;;12.60;2.90;;;17.60;28.30;;;;;;5049338;28;20797;-72
2022/07/08 06:51:05;;;;;;;7.55;2.55;;;17.80;27.80;;;;;;5049074;28;20424;-72
2022/07/08 06:54:34;;;;;;;12.15;2.80;;;18.00;26.90;;;;;;5047142;28;20408;-72
2022/07/08 06:56:16;;;;;;;12.15;2.50;;;18.20;25.50;;;;;;5049696;28;20397;-73
2022/07/08 06:58:42;;;;;;;10.33;3.00;;;18.30;26.40;;;;;;5049723;28;20405;-73
2022/07/08 07:01:08;;;;;;;11.67;2.70;;;18.40;26.40;;;;;;5049258;28;20686;-72
2022/07/08 07:03:33;;;;;;;8.70;2.70;;;18.40;26.20;;;;;;5049203;28;20908;-73
2022/07/08 07:05:59;;;;;;;9.48;2.30;;;18.30;26.30;;;;;;5049311;28;20389;-72
2022/07/08 07:08:24;;;;;;;9.43;2.50;;;18.00;27.40;;;;;;5048944;28;20397;-73
2022/07/08 07:10:50;;;;;;;16.30;3.40;;;18.00;28.30;;;;;;5048233;28;20824;-73
2022/07/08 07:13:15;;;;;;;13.30;3.37;;;17.80;28.30;;;;;;5032385;28;20891;-74
2022/07/08 07:15:41;;;;;;;11.25;2.80;;;18.00;29.30;;;;;;5049088;28;20739;-73
2022/07/08 07:18:08;;;;;;;7.20;2.47;;;18.00;27.60;;;;;;5049301;28;20385;-73
2022/07/08 07:20:34;;;;;;;21.65;7.28;;;18.10;27.80;;;;;;5049300;28;20393;-72
2022/07/08 07:23:00;;;;;;;22.45;9.75;;;18.20;25.50;;;;;;5049941;28;20826;-72
2022/07/08 07:25:26;;;;;;;14.75;8.10;;;18.50;24.50;;;;;;5049344;28;20393;-72
2022/07/08 07:27:51;;;;;;;19.50;7.43;;;18.70;22.80;;;;;;5049133;28;20389;-74
2022/07/08 07:30:19;;;;;;;11.70;6.70;;;19.00;22.40;;;;;;5049348;28;20487;-73
2022/07/08 07:32:45;;;;;;;8.48;2.65;;;19.60;20.60;;;;;;5048015;28;20394;-72
2022/07/08 07:35:10;;;;;;;10.60;2.58;;;18.90;25.50;;;;;;5049323;28;20401;-73
2022/07/08 07:37:37;;;;;;;8.10;2.60;;;18.70;26.30;;;;;;5048878;28;20412;-72
2022/07/08 07:40:04;;;;;;;11.77;2.47;;;18.50;27.10;;;;;;5049345;28;20389;-73
2022/07/08 07:42:30;;;;;;;6.80;2.60;;;18.00;27.50;;;;;;5050276;28;20392;-73
2022/07/08 07:44:56;;;;;;;10.52;3.70;;;17.70;28.60;;;;;;5050235;28;20427;-73
2022/07/08 07:47:21;;;;;;;10.33;3.00;;;17.40;30.30;;;;;;5050160;28;20389;-72
2022/07/08 07:49:47;;;;;;;10.37;2.67;;;17.20;30.10;;;;;;5050537;28;20404;-73
2022/07/08 07:52:12;;;;;;;10.65;3.33;;;17.20;30.90;;;;;;5049178;28;20778;-73
2022/07/08 07:54:38;;;;;;;5.90;2.88;;;17.20;30.20;;;;;;5046845;28;20703;-73
2022/07/08 07:57:04;;;;;;;10.67;3.60;;;17.20;31.10;;;;;;5068760;28;20394;-73
2022/07/08 07:59:29;;;;;;;8.93;2.60;;;17.30;30.70;;;;;;5049659;28;20432;-72
2022/07/08 08:01:55;;;;;;;13.30;3.90;;;17.50;30.20;;;;;;5049186;28;20476;-73
2022/07/08 08:04:20;;;;;;;9.17;3.83;;;17.60;29.30;;;;;;5049513;28;20484;-73
2022/07/08 08:06:46;;;;;;;8.63;4.90;;;17.90;30.00;;;;;;5049309;28;20433;-72
2022/07/08 08:09:11;;;;;;;13.00;5.82;;;18.10;27.90;;;;;;5048808;28;20409;-72
2022/07/08 08:11:37;;;;;;;10.23;5.30;;;18.10;27.90;;;;;;5048596;28;20413;-72
2022/07/08 08:14:02;;;;;;;10.10;4.60;;;18.10;26.00;;;;;;5049161;28;20407;-71
2022/07/08 08:16:28;;;;;;;8.77;4.25;;;17.90;25.20;;;;;;5031036;28;20522;-70
2022/07/08 08:18:54;;;;;;;10.63;4.40;;;18.00;25.00;;;;;;5048783;28;20413;-73
2022/07/08 08:21:19;;;;;;;9.97;3.30;;;18.20;24.30;;;;;;5049488;28;20393;-72
2022/07/08 08:23:45;;;;;;;10.33;2.80;;;18.30;24.30;;;;;;5048740;28;20377;-71
2022/07/08 08:26:10;;;;;;;7.03;3.10;;;18.30;25.80;;;;;;5049435;28;20389;-72
2022/07/08 08:28:36;;;;;;;11.43;3.60;;;17.90;27.80;;;;;;5048225;28;20400;-72
2022/07/08 08:31:02;;;;;;;7.10;2.80;;;18.10;27.00;;;;;;5054648;28;20397;-73
2022/07/08 08:33:27;;;;;;;13.63;3.40;;;18.10;25.50;;;;;;5055671;28;20381;-73
2022/07/08 08:35:53;;;;;;;15.73;4.57;;;18.30;26.00;;;;;;5054823;28;20389;-72
2022/07/08 08:38:19;;;;;;;10.05;4.00;;;18.50;25.60;;;;;;5055074;28;20404;-73
2022/07/08 08:40:46;;;;;;;15.93;4.10;;;18.70;24.90;;;;;;5055970;28;20400;-72
2022/07/08 08:43:12;;;;;;;12.30;4.30;;;18.60;23.40;;;;;;5054766;28;20608;-72
2022/07/08 08:45:38;;;;;;;9.52;3.80;;;18.60;23.70;;;;;;5055013;28;20868;-73
2022/07/08 08:48:07;;;;;;;8.93;3.05;;;18.60;25.70;;;;;;5049224;28;20433;-74
2022/07/08 08:50:56;;;;;;;8.48;3.25;;;18.80;24.00;;;;;;5053936;28;20437;-73
2022/07/08 08:53:30;;;;;;;15.38;3.35;;;19.00;25.10;;;;;;5052966;28;20596;-72
2022/07/08 08:55:59;;;;;;;11.90;3.22;;;19.10;24.60;;;;;;5036733;28;20973;-72
2022/07/08 08:58:25;;;;;;;10.57;3.00;;;19.60;23.00;;;;;;5051138;28;20400;-72
2022/07/08 09:00:50;;;;;;;10.17;3.30;;;20.00;22.40;;;;;;5051744;28;20817;-73
2022/07/08 09:03:16;;;;;;;11.60;3.43;;;19.80;22.40;;;;;;5054001;28;20400;-73
2022/07/08 09:05:42;;;;;;;12.70;3.83;;;19.40;23.40;;;;;;5053378;28;20393;-73
2022/07/08 09:08:07;;;;;;;9.35;2.70;;;18.90;24.40;;;;;;5052065;28;20381;-73
2022/07/08 09:10:34;;;;;;;13.07;3.30;;;18.80;24.80;;;;;;5051609;28;20409;-73
2022/07/08 09:13:11;;;;;;;10.35;3.10;;;18.90;24.80;;;;;;5050562;28;20397;-72
2022/07/08 09:15:38;;;;;;;13.57;3.17;;;19.20;24.10;;;;;;5049279;28;20766;-72
2022/07/08 09:18:15;;;;;;;8.23;3.30;;;19.60;22.00;;;;;;5051545;28;20385;-71
2022/07/08 09:20:49;;;;;;;6.25;2.70;;;19.70;21.30;;;;;;5051353;28;20900;-73
2022/07/08 09:23:24;;;;;;;5.95;2.92;;;19.50;21.00;;;;;;5050716;28;20397;-74
2022/07/08 09:25:52;;;;;;;9.88;2.80;;;19.30;20.50;;;;;;5052276;28;20394;-73
2022/07/08 09:28:30;;;;;;;8.82;3.10;;;19.50;21.40;;;;;;5052927;28;20882;-72
2022/07/08 09:30:57;;;;;;;14.67;3.30;;;19.70;20.70;;;;;;5036728;28;20788;-71
2022/07/08 09:33:25;;;;;;;11.27;3.20;;;19.80;20.30;;;;;;5051501;28;20519;-72
2022/07/08 09:35:51;;;;;;;9.27;3.47;;;20.10;20.10;;;;;;5051515;28;20507;-72
2022/07/08 09:38:21;;;;;;;9.52;3.22;;;20.60;18.70;;;;;;5051071;28;20539;-72
2022/07/08 09:40:53;;;;;;;8.15;3.20;;;21.20;18.00;;;;;;5033529;28;20480;-73
2022/07/08 09:43:18;;;;;;;7.72;3.05;;;21.70;17.80;;;;;;5051772;28;20462;-74
2022/07/08 09:45:44;;;;;;;11.00;3.20;;;21.80;16.50;;;;;;5053303;28;20389;-75
2022/07/08 09:48:10;;;;;;;12.77;3.67;;;21.50;17.60;;;;;;5054061;28;20389;-77
2022/07/08 09:50:38;;;;;;;11.20;3.20;;;21.40;17.60;;;;;;5054723;28;20408;-74
2022/07/08 09:53:22;;;;;;;9.98;3.55;;;21.30;17.70;;;;;;5052096;28;20394;-73
2022/07/08 09:55:54;;;;;;;10.45;3.60;;;21.40;18.20;;;;;;5037390;28;20422;-75
2022/07/08 09:58:21;;;;;;;11.10;4.30;;;22.00;16.50;;;;;;5050279;28;20463;-75
2022/07/08 10:00:49;;;;;;;11.60;3.57;;;21.90;16.50;;;;;;5054125;28;20902;-76
2022/07/08 10:03:15;;;;;;;11.43;3.20;;;22.00;16.40;;;;;;5045434;28;20403;-72
2022/07/08 10:05:42;;;;;;;13.10;3.13;;;21.70;16.60;;;;;;5053018;28;20494;-71
2022/07/08 10:08:08;;;;;;;10.38;3.60;;;21.20;17.80;;;;;;5053128;28;20447;-72
2022/07/08 10:10:36;;;;;;;9.55;2.90;;;21.50;16.90;;;;;;5058695;28;20401;-74
2022/07/08 10:13:02;;;;;;;10.05;2.88;;;22.20;15.40;;;;;;5053796;28;20421;-73
2022/07/08 10:15:30;;;;;;;14.82;3.08;;;22.70;14.80;;;;;;5055563;28;20435;-73
2022/07/08 10:17:59;;;;;;;12.05;2.80;;;22.90;15.20;;;;;;5054141;28;20742;-73
2022/07/08 10:20:26;;;;;;;9.18;2.50;;;23.30;14.20;;;;;;5051284;28;20409;-72
2022/07/08 10:22:57;;;;;;;10.27;3.40;;;23.70;13.30;;;;;;5056880;28;20400;-73
2022/07/08 10:25:24;;;;;;;8.30;2.80;;;23.30;14.30;;;;;;5045237;28;20512;-72
2022/07/08 10:27:50;;;;;;;15.60;3.50;;;22.90;14.70;;;;;;5056080;28;20401;-73
2022/07/08 10:30:20;;;;;;;9.10;3.50;;;22.70;14.40;;;;;;5054117;28;20401;-73
2022/07/08 10:32:47;;;;;;;13.48;3.38;;;22.30;15.20;;;;;;5053780;28;20382;-72
2022/07/08 10:35:18;;;;;;;11.23;3.55;;;21.90;15.90;;;;;;5051728;28;20382;-71
2022/07/08 10:37:56;;;;;;;13.30;4.40;;;21.90;16.50;;;;;;5052399;28;20493;-71
2022/07/08 10:40:42;;;;;;;7.80;3.27;;;22.30;15.60;;;;;;5052472;28;20505;-72
2022/07/08 10:43:20;;;;;;;10.02;3.17;;;22.70;14.90;;;;;;5051366;28;20385;-74
2022/07/08 10:46:03;;;;;;;14.15;3.83;;;22.40;14.30;;;;;;5051863;28;20404;-72
2022/07/08 10:48:45;;;;;;;10.97;3.70;;;22.00;16.40;;;;;;5052291;28;20858;-71
2022/07/08 10:51:20;;;;;;;10.95;3.17;;;22.10;15.60;;;;;;5051486;28;20791;-72
2022/07/08 10:53:49;;;;;;;13.20;3.33;;;22.30;15.50;;;;;;5050648;28;20844;-72
2022/07/08 10:56:49;;;;;;;9.73;3.00;;;22.20;15.60;;;;;;5052102;28;20381;-71
2022/07/08 10:59:16;;;;;;;9.73;3.13;;;22.00;16.00;;;;;;5051558;28;20386;-71
2022/07/08 11:01:42;;;;;;;6.13;2.30;;;22.30;16.20;;;;;;5051382;28;20404;-72
2022/07/08 11:04:40;;;;;;;10.95;2.75;;;22.40;15.60;;;;;;5034273;28;20960;-72
2022/07/08 11:07:14;;;;;;;7.70;3.05;;;22.30;17.10;;;;;;5023619;28;20404;-72
2022/07/08 11:09:41;;;;;;;8.93;2.80;;;22.60;15.90;;;;;;5052005;28;20457;-72
2022/07/08 11:12:37;;;;;;;10.73;3.22;;;22.60;15.00;;;;;;5034391;28;20439;-71
2022/07/08 11:15:10;;;;;;;13.02;3.35;;;23.20;14.70;;;;;;5052074;28;20393;-73
2022/07/08 11:17:38;;;;;;;8.93;2.88;;;23.50;13.80;;;;;;5034186;28;20377;-72
2022/07/08 11:20:08;;;;;;;11.88;2.80;;;24.30;13.00;;;;;;5050724;28;20480;-71
2022/07/08 11:22:35;;;;;;;12.32;2.97;;;24.90;11.60;;;;;;5051044;28;20923;-71
2022/07/08 11:25:02;;;;;;;13.60;3.20;;;24.50;12.60;;;;;;5049952;28;20396;-71
2022/07/08 11:27:33;;;;;;;10.50;2.90;;;24.90;11.50;;;;;;5043295;28;20394;-71
2022/07/08 11:30:00;;;;;;;9.63;2.70;;;25.40;10.30;;;;;;5044083;28;20770;-72
2022/07/08 11:32:27;;;;;;;9.13;2.75;;;25.70;9.60;;;;;;5050937;28;20385;-72
2022/07/08 11:34:54;;;;;;;8.48;2.70;;;25.50;9.80;;;;;;5051126;28;20463;-73
2022/07/08 11:37:21;;;;;;;6.07;2.63;;;24.80;10.70;;;;;;5043956;28;20383;-73
2022/07/08 11:39:47;;;;;;;7.40;2.13;;;25.00;11.00;;;;;;5038665;28;20436;-72
2022/07/08 11:42:13;;;;;;;6.50;2.60;;;24.90;11.60;;;;;;5050104;28;20967;-71
2022/07/08 11:44:39;;;;;;;10.10;3.08;;;25.40;10.30;;;;;;5050459;28;20385;-72
2022/07/08 11:47:06;;;;;;;8.82;3.10;;;25.90;9.70;;;;;;5050613;28;20463;-72
2022/07/08 11:49:34;;;;;;;9.27;2.55;;;26.20;9.40;;;;;;5050144;28;20408;-71
2022/07/08 11:52:02;;;;;;;7.15;2.50;;;26.00;10.30;;;;;;5050509;28;20488;-74
2022/07/08 11:54:29;;;;;;;8.18;3.13;;;26.10;10.30;;;;;;5050004;28;20862;-71
2022/07/08 11:56:56;;;;;;;6.70;2.70;;;25.30;10.70;;;;;;5051399;28;20385;-71
2022/07/08 11:59:24;;;;;;;10.68;3.45;;;24.80;12.30;;;;;;5050777;28;20487;-71
2022/07/08 12:01:51;;;;;;;13.75;3.50;;;24.50;13.00;;;;;;5050711;28;20393;-71
2022/07/08 12:04:17;;;;;;;8.70;3.37;;;24.40;12.90;;;;;;5048936;28;20470;-71
2022/07/08 12:06:50;;;;;;;12.53;3.63;;;24.90;12.40;;;;;;5050461;28;20396;-73
2022/07/08 12:09:18;;;;;;;14.10;3.80;;;24.90;11.90;;;;;;5030306;28;20411;-71
2022/07/08 12:11:48;;;;;;;8.87;3.60;;;25.30;11.80;;;;;;5028497;28;20387;-71
2022/07/08 12:14:14;;;;;;;7.20;3.40;;;25.80;10.20;;;;;;5028384;28;20429;-72
2022/07/08 12:16:50;;;;;;;12.52;3.90;;;26.10;10.60;;;;;;5028271;28;20414;-73
2022/07/08 12:19:27;;;;;;;7.80;2.42;;;26.60;8.90;;;;;;5028956;28;20391;-73
2022/07/08 12:21:54;;;;;;;12.45;3.00;;;25.60;10.80;;;;;;5028481;28;20383;-72
2022/07/08 12:24:25;;;;;;;9.75;3.78;;;24.50;12.90;;;;;;5038641;28;20401;-72
2022/07/08 12:26:59;;;;;;;13.93;3.50;;;24.30;13.10;;;;;;5045873;28;20396;-73
2022/07/08 12:29:31;;;;;;;10.35;2.70;;;25.00;12.50;;;;;;5049446;28;20474;-71
2022/07/08 12:31:56;;;;;;;7.75;3.08;;;25.00;11.80;;;;;;5048253;28;20458;-71
2022/07/08 12:34:24;;;;;;;9.20;2.97;;;25.30;11.40;;;;;;5048000;28;20385;-71
2022/07/08 12:36:50;;;;;;;8.13;2.72;;;25.70;11.30;;;;;;5048378;28;20638;-73
2022/07/08 12:39:21;;;;;;;7.85;3.20;;;25.60;11.40;;;;;;5048034;28;20823;-74
2022/07/08 12:42:05;;;;;;;8.73;2.58;;;24.90;13.10;;;;;;5028285;28;20805;-73
2022/07/08 12:44:41;;;;;;;15.15;3.67;;;24.50;13.20;;;;;;5034738;28;20389;-72